createdAt,value
2023-01-29T00:02:20.508Z,90.60
2023-01-29T00:04:47.535Z,90.90
2023-01-29T00:07:14.639Z,91.30
2023-01-29T00:09:41.629Z,92.20
2023-01-29T00:12:11.602Z,93.00
2023-01-29T00:14:38.651Z,92.00
2023-01-29T00:17:05.659Z,91.70
2023-01-29T00:19:32.661Z,91.30
2023-01-29T00:21:59.609Z,91.50
2023-01-29T00:24:26.593Z,91.10
2023-01-29T00:26:53.684Z,91.80
2023-01-29T00:29:22.058Z,91.50
2023-01-29T00:31:49.469Z,90.80
2023-01-29T00:34:16.613Z,91.40
2023-01-29T00:36:45.625Z,91.00
2023-01-29T00:39:13.125Z,91.80
2023-01-29T00:41:58.730Z,92.10
2023-01-29T00:44:44.639Z,92.60
2023-01-29T00:47:30.161Z,92.80
2023-01-29T00:49:57.677Z,94.30
2023-01-29T00:52:24.843Z,95.10
2023-01-29T00:54:57.255Z,95.30
2023-01-29T00:57:27.008Z,95.70
2023-01-29T00:59:54.436Z,96.00
2023-01-29T01:02:40.668Z,95.50
2023-01-29T01:05:14.111Z,95.70
2023-01-29T01:07:43.978Z,95.60
2023-01-29T01:10:22.678Z,95.50
2023-01-29T01:13:01.948Z,95.70
2023-01-29T01:15:31.490Z,96.30
2023-01-29T01:18:00.506Z,97.30
2023-01-29T01:20:31.145Z,96.90
2023-01-29T01:22:58.191Z,96.30
2023-01-29T01:25:28.208Z,96.40
2023-01-29T01:28:02.912Z,96.40
2023-01-29T01:30:30.027Z,96.70
2023-01-29T01:32:57.076Z,96.20
2023-01-29T01:35:24.039Z,97.30
2023-01-29T01:37:51.154Z,97.40
2023-01-29T01:40:21.363Z,97.30
2023-01-29T01:42:51.102Z,97.80
2023-01-29T01:45:31.347Z,97.30
2023-01-29T01:48:04.017Z,98.00
2023-01-29T01:50:39.891Z,98.30
2023-01-29T01:53:17.078Z,98.70
2023-01-29T01:55:59.125Z,98.40
2023-01-29T01:58:34.976Z,98.10
2023-01-29T02:01:04.902Z,97.20
2023-01-29T02:03:56.242Z,96.80
2023-01-29T02:06:41.803Z,97.70
2023-01-29T02:09:34.486Z,98.20
2023-01-29T02:12:11.452Z,97.50
2023-01-29T02:14:40.669Z,97.10
2023-01-29T02:17:11.261Z,98.20
2023-01-29T02:19:47.195Z,97.80
2023-01-29T02:22:49.281Z,97.60
2023-01-29T02:25:54.021Z,97.40
2023-01-29T02:28:45.408Z,97.90
2023-01-29T02:31:34.594Z,97.70
2023-01-29T02:34:54.944Z,97.80
2023-01-29T02:37:31.887Z,97.50
2023-01-29T02:40:18.112Z,97.90
2023-01-29T02:42:56.641Z,97.30
2023-01-29T02:45:34.469Z,97.40
2023-01-29T02:48:02.614Z,98.30
2023-01-29T02:50:33.161Z,97.20
2023-01-29T02:53:16.877Z,97.50
2023-01-29T02:55:53.768Z,96.70
2023-01-29T02:58:41.488Z,97.60
2023-01-29T03:01:16.079Z,97.30
2023-01-29T03:03:49.630Z,97.60
2023-01-29T03:06:31.959Z,97.90
2023-01-29T03:09:02.399Z,97.60
2023-01-29T03:11:37.118Z,98.00
2023-01-29T03:14:23.322Z,98.10
2023-01-29T03:16:52.447Z,98.10
2023-01-29T03:19:36.228Z,98.70
2023-01-29T03:22:10.935Z,98.70
2023-01-29T03:25:05.082Z,98.30
2023-01-29T03:27:59.816Z,98.40
2023-01-29T03:30:56.018Z,98.60
2023-01-29T03:33:47.392Z,98.70
2023-01-29T03:36:21.516Z,98.50
2023-01-29T03:38:48.742Z,98.10
2023-01-29T03:41:28.733Z,98.30
2023-01-29T03:44:16.101Z,98.10
2023-01-29T03:47:04.778Z,97.90
2023-01-29T03:49:56.337Z,98.10
2023-01-29T03:52:39.930Z,98.00
2023-01-29T03:55:18.642Z,97.70
2023-01-29T03:58:15.394Z,97.80
2023-01-29T04:01:01.374Z,98.00
2023-01-29T04:03:38.009Z,97.70
2023-01-29T04:06:17.402Z,97.80
2023-01-29T04:09:00.197Z,98.30
2023-01-29T04:11:29.555Z,97.50
2023-01-29T04:13:58.235Z,98.00
2023-01-29T04:16:31.398Z,98.30
2023-01-29T04:19:17.143Z,99.10
2023-01-29T04:21:47.334Z,98.50
2023-01-29T04:24:15.700Z,98.70
2023-01-29T04:27:23.150Z,98.60
2023-01-29T04:30:07.069Z,98.20
2023-01-29T04:32:40.628Z,98.30
2023-01-29T04:35:31.465Z,98.60
2023-01-29T04:38:18.433Z,99.00
2023-01-29T04:41:15.852Z,99.20
2023-01-29T04:43:52.499Z,99.40
2023-01-29T04:47:18.488Z,99.30
2023-01-29T04:50:05.758Z,99.40
2023-01-29T04:52:59.572Z,99.30
2023-01-29T04:55:36.161Z,99.70
2023-01-29T04:58:17.627Z,99.70
2023-01-29T05:00:49.229Z,99.90
2023-01-29T05:03:16.985Z,99.90
2023-01-29T05:05:49.093Z,99.90
2023-01-29T05:08:19.142Z,99.90
2023-01-29T05:10:48.275Z,99.90
2023-01-29T05:13:16.140Z,99.90
2023-01-29T05:16:06.060Z,99.90
2023-01-29T05:18:34.030Z,99.90
2023-01-29T05:21:06.090Z,99.90
2023-01-29T05:23:33.259Z,99.90
2023-01-29T05:26:00.325Z,99.90
2023-01-29T05:28:27.476Z,99.90
2023-01-29T05:30:57.000Z,99.90
2023-01-29T05:33:29.902Z,99.60
2023-01-29T05:35:59.004Z,99.60
2023-01-29T05:38:26.371Z,99.50
2023-01-29T05:40:54.093Z,99.50
2023-01-29T05:43:23.925Z,99.90
2023-01-29T05:45:58.083Z,99.80
2023-01-29T05:48:27.613Z,99.70
2023-01-29T05:50:59.674Z,99.60
2023-01-29T05:53:26.730Z,99.60
2023-01-29T05:55:53.843Z,99.50
2023-01-29T05:58:20.841Z,99.40
2023-01-29T06:00:55.066Z,99.40
2023-01-29T06:03:24.329Z,99.60
2023-01-29T06:05:51.783Z,99.70
2023-01-29T06:08:18.741Z,99.70
2023-01-29T06:10:45.783Z,99.70
2023-01-29T06:13:13.031Z,99.80
2023-01-29T06:15:42.760Z,99.70
2023-01-29T06:18:15.045Z,99.90
2023-01-29T06:20:42.499Z,99.90
2023-01-29T06:23:09.546Z,99.90
2023-01-29T06:25:37.194Z,99.90
2023-01-29T06:28:06.858Z,99.90
2023-01-29T06:30:33.898Z,99.90
2023-01-29T06:33:03.763Z,99.90
2023-01-29T06:35:31.012Z,99.90
2023-01-29T06:38:01.153Z,99.90
2023-01-29T06:40:28.297Z,99.70
2023-01-29T06:43:00.078Z,99.50
2023-01-29T06:45:27.070Z,99.50
2023-01-29T06:47:54.097Z,99.10
2023-01-29T06:50:21.170Z,98.70
2023-01-29T06:52:50.766Z,98.90
2023-01-29T06:55:17.756Z,98.80
2023-01-29T06:57:44.879Z,98.60
2023-01-29T07:00:12.540Z,98.70
2023-01-29T07:02:39.682Z,98.30
2023-01-29T07:05:06.960Z,98.20
2023-01-29T07:07:36.825Z,98.10
2023-01-29T07:10:04.161Z,98.20
2023-01-29T07:12:31.146Z,98.00
2023-01-29T07:14:58.094Z,97.90
2023-01-29T07:17:25.299Z,97.90
2023-01-29T07:19:54.505Z,97.60
2023-01-29T07:22:21.800Z,97.10
2023-01-29T07:24:48.815Z,97.00
2023-01-29T07:27:15.913Z,96.70
2023-01-29T07:29:42.822Z,96.50
2023-01-29T07:32:09.933Z,96.30
2023-01-29T07:34:36.978Z,96.10
2023-01-29T07:37:04.294Z,96.10
2023-01-29T07:39:31.293Z,96.10
2023-01-29T07:41:58.511Z,95.90
2023-01-29T07:44:27.569Z,95.80
2023-01-29T07:46:54.540Z,96.00
2023-01-29T07:49:21.566Z,95.70
2023-01-29T07:51:55.998Z,95.50
2023-01-29T07:54:25.397Z,95.20
2023-01-29T07:56:52.568Z,95.40
2023-01-29T07:59:19.496Z,95.30
2023-01-29T08:01:52.314Z,94.20
2023-01-29T08:04:19.368Z,94.10
2023-01-29T08:06:46.322Z,93.70
2023-01-29T08:09:13.521Z,93.70
2023-01-29T08:11:40.529Z,93.30
2023-01-29T08:14:09.460Z,92.70
2023-01-29T08:16:36.722Z,92.50
2023-01-29T08:19:06.607Z,92.60
2023-01-29T08:21:33.606Z,92.40
2023-01-29T08:24:07.384Z,92.10
2023-01-29T08:26:34.496Z,91.90
2023-01-29T08:29:04.797Z,91.60
2023-01-29T08:31:32.338Z,91.10
2023-01-29T08:33:59.875Z,90.90
2023-01-29T08:36:27.034Z,90.30
2023-01-29T08:38:54.129Z,90.40
2023-01-29T08:41:21.143Z,90.30
2023-01-29T08:43:48.207Z,90.30
2023-01-29T08:46:18.574Z,90.20
2023-01-29T08:48:45.651Z,89.70
2023-01-29T08:51:13.333Z,89.00
2023-01-29T08:53:40.415Z,88.90
2023-01-29T08:56:07.711Z,88.70
2023-01-29T08:58:34.853Z,89.10
2023-01-29T09:01:13.471Z,88.30
2023-01-29T09:03:43.682Z,88.60
2023-01-29T09:06:13.327Z,88.00
2023-01-29T09:08:40.563Z,88.20
2023-01-29T09:11:08.247Z,87.80
2023-01-29T09:13:35.282Z,88.00
2023-01-29T09:16:04.089Z,87.70
2023-01-29T09:18:31.624Z,88.00
2023-01-29T09:20:59.112Z,87.40
2023-01-29T09:23:26.194Z,87.70
2023-01-29T09:25:53.175Z,86.90
2023-01-29T09:28:23.685Z,86.30
2023-01-29T09:30:51.115Z,86.20
2023-01-29T09:33:18.633Z,85.50
2023-01-29T09:35:49.951Z,86.00
2023-01-29T09:38:20.423Z,85.70
2023-01-29T09:41:05.825Z,85.30
2023-01-29T09:43:56.725Z,84.80
2023-01-29T09:46:59.981Z,84.20
2023-01-29T09:49:35.757Z,84.00
2023-01-29T09:52:15.072Z,83.60
2023-01-29T09:55:07.101Z,83.20
2023-01-29T09:57:46.375Z,83.50
2023-01-29T10:00:28.987Z,83.50
2023-01-29T10:03:04.817Z,82.60
2023-01-29T10:05:53.521Z,82.80
2023-01-29T10:08:39.276Z,82.80
2023-01-29T10:11:33.018Z,83.10
2023-01-29T10:14:25.141Z,82.30
2023-01-29T10:17:04.612Z,82.60
2023-01-29T10:19:41.093Z,82.40
2023-01-29T10:22:23.872Z,82.70
2023-01-29T10:25:04.695Z,82.20
2023-01-29T10:27:38.655Z,81.70
2023-01-29T10:30:33.512Z,81.70
2023-01-29T10:33:04.701Z,81.40
2023-01-29T10:35:38.506Z,81.40
2023-01-29T10:38:31.434Z,81.20
2023-01-29T10:41:26.379Z,81.20
2023-01-29T10:44:30.894Z,81.00
2023-01-29T10:47:07.984Z,80.20
2023-01-29T10:49:59.563Z,79.80
2023-01-29T10:52:46.724Z,79.50
2023-01-29T10:55:19.177Z,79.80
2023-01-29T10:58:16.792Z,79.10
2023-01-29T11:00:47.552Z,77.90
2023-01-29T11:03:28.498Z,76.50
2023-01-29T11:06:18.093Z,77.00
2023-01-29T11:09:20.113Z,75.40
2023-01-29T11:12:07.866Z,75.30
2023-01-29T11:15:07.200Z,74.60
2023-01-29T11:17:37.178Z,74.70
2023-01-29T11:20:25.243Z,73.90
2023-01-29T11:22:55.956Z,74.70
2023-01-29T11:25:24.759Z,73.80
2023-01-29T11:27:56.406Z,73.40
2023-01-29T11:30:41.386Z,73.50
2023-01-29T11:33:22.192Z,72.40
2023-01-29T11:35:49.291Z,73.50
2023-01-29T11:38:16.412Z,73.60
2023-01-29T11:40:46.389Z,73.40
2023-01-29T11:43:26.308Z,72.70
2023-01-29T11:46:02.218Z,72.80
2023-01-29T11:48:51.687Z,73.50
2023-01-29T11:51:25.502Z,73.50
2023-01-29T11:53:59.657Z,73.50
2023-01-29T11:56:35.155Z,73.50
2023-01-29T11:59:04.663Z,73.90
2023-01-29T12:01:38.714Z,73.50
2023-01-29T12:04:21.865Z,74.40
2023-01-29T12:06:53.013Z,74.50
2023-01-29T12:09:23.396Z,74.50
2023-01-29T12:11:51.911Z,73.90
2023-01-29T12:14:34.308Z,74.50
2023-01-29T12:17:27.660Z,75.00
2023-01-29T12:20:06.596Z,75.60
2023-01-29T12:23:04.191Z,74.70
2023-01-29T12:26:00.504Z,74.50
2023-01-29T12:28:41.266Z,75.00
2023-01-29T12:31:29.879Z,75.30
2023-01-29T12:34:18.544Z,74.70
2023-01-29T12:36:55.427Z,74.20
2023-01-29T12:39:22.709Z,75.00
2023-01-29T12:42:07.648Z,74.30
2023-01-29T12:45:01.108Z,74.70
2023-01-29T12:47:40.729Z,74.80
2023-01-29T12:50:29.273Z,75.10
2023-01-29T12:52:58.197Z,75.70
2023-01-29T12:55:27.241Z,75.40
2023-01-29T12:57:59.048Z,75.50
2023-01-29T13:00:28.416Z,74.90
2023-01-29T13:02:58.321Z,75.20
2023-01-29T13:05:39.637Z,75.40
2023-01-29T13:08:14.433Z,76.10
2023-01-29T13:10:45.248Z,76.10
2023-01-29T13:13:41.094Z,76.80
2023-01-29T13:16:13.459Z,76.50
2023-01-29T13:18:44.145Z,76.90
2023-01-29T13:21:18.474Z,77.10
2023-01-29T13:23:51.993Z,77.10
2023-01-29T13:26:21.168Z,77.20
2023-01-29T13:28:49.426Z,77.70
2023-01-29T13:31:36.802Z,77.60
2023-01-29T13:34:13.554Z,77.60
2023-01-29T13:36:57.195Z,78.10
2023-01-29T13:39:39.732Z,78.30
2023-01-29T13:42:16.427Z,77.80
2023-01-29T13:44:49.263Z,77.50
2023-01-29T13:47:31.877Z,77.90
2023-01-29T13:50:13.032Z,78.20
2023-01-29T13:52:57.823Z,77.80
2023-01-29T13:55:35.287Z,78.40
2023-01-29T13:58:04.360Z,78.20
2023-01-29T14:00:35.900Z,78.40
2023-01-29T14:03:08.852Z,78.10
2023-01-29T14:06:03.248Z,78.10
2023-01-29T14:08:37.914Z,78.20
2023-01-29T14:13:59.204Z,78.10
2023-01-29T14:16:35.683Z,78.00
2023-01-29T14:19:07.269Z,77.50
2023-01-29T14:21:38.827Z,77.00
2023-01-29T14:24:22.329Z,77.10
2023-01-29T14:26:55.576Z,76.90
2023-01-29T14:29:35.608Z,76.90
2023-01-29T14:32:19.630Z,77.70
2023-01-29T14:34:52.823Z,77.40
2023-01-29T14:37:34.497Z,77.40
2023-01-29T14:40:25.199Z,77.90
2023-01-29T14:43:09.232Z,78.20
2023-01-29T14:45:38.955Z,78.20
2023-01-29T14:48:13.116Z,77.50
2023-01-29T14:50:43.588Z,78.00
2023-01-29T14:53:44.359Z,78.20
2023-01-29T14:56:30.952Z,77.90
2023-01-29T14:59:14.030Z,78.60
2023-01-29T15:01:48.406Z,77.50
2023-01-29T15:04:29.401Z,77.20
2023-01-29T15:07:13.083Z,76.70
2023-01-29T15:09:48.742Z,77.40
2023-01-29T15:12:21.870Z,77.70
2023-01-29T15:15:16.699Z,77.40
2023-01-29T15:18:04.871Z,77.50
2023-01-29T15:20:34.916Z,76.80
2023-01-29T15:23:03.815Z,76.10
2023-01-29T15:25:35.956Z,76.00
2023-01-29T15:28:08.679Z,76.10
2023-01-29T15:30:36.367Z,76.00
2023-01-29T15:33:05.643Z,76.40
2023-01-29T15:35:38.858Z,76.70
2023-01-29T15:38:18.057Z,76.70
2023-01-29T15:41:21.247Z,77.20
2023-01-29T15:43:51.808Z,77.70
2023-01-29T15:46:29.167Z,76.90
2023-01-29T15:48:58.194Z,76.90
2023-01-29T15:51:28.084Z,77.70
2023-01-29T15:54:05.734Z,77.40
2023-01-29T15:56:37.080Z,77.60
2023-01-29T15:59:09.845Z,77.40
2023-01-29T16:01:37.099Z,77.60
2023-01-29T16:04:04.732Z,77.60
2023-01-29T16:06:38.700Z,77.20
2023-01-29T16:09:06.548Z,77.60
2023-01-29T16:11:35.581Z,76.90
2023-01-29T16:14:03.746Z,77.00
2023-01-29T16:16:31.011Z,76.50
2023-01-29T16:19:00.876Z,76.80
2023-01-29T16:21:35.640Z,77.30
2023-01-29T16:24:07.668Z,77.20
2023-01-29T16:26:38.002Z,77.20
2023-01-29T16:29:17.159Z,77.70
2023-01-29T16:31:46.083Z,77.90
2023-01-29T16:34:24.919Z,78.70
2023-01-29T16:36:54.394Z,79.70
2023-01-29T16:39:39.016Z,80.10
2023-01-29T16:42:23.146Z,80.60
2023-01-29T16:45:00.691Z,80.40
2023-01-29T16:47:36.128Z,80.80
2023-01-29T16:50:36.162Z,81.20
2023-01-29T16:53:21.468Z,82.10
2023-01-29T16:55:50.370Z,82.80
2023-01-29T16:58:22.992Z,83.20
2023-01-29T17:00:55.011Z,84.00
2023-01-29T17:03:25.739Z,84.50
2023-01-29T17:05:53.393Z,84.60
2023-01-29T17:08:30.463Z,84.60
2023-01-29T17:10:57.879Z,84.70
2023-01-29T17:13:35.717Z,84.90
2023-01-29T17:16:14.907Z,84.80
2023-01-29T17:18:42.003Z,84.70
2023-01-29T17:21:08.959Z,84.90
2023-01-29T17:23:36.105Z,84.90
2023-01-29T17:26:03.304Z,85.10
2023-01-29T17:28:31.045Z,85.20
2023-01-29T17:31:06.368Z,85.40
2023-01-29T17:33:37.339Z,85.60
2023-01-29T17:36:04.675Z,85.50
2023-01-29T17:38:32.491Z,85.30
2023-01-29T17:41:39.151Z,85.70
2023-01-29T17:44:06.144Z,86.20
2023-01-29T17:46:33.277Z,86.70
2023-01-29T17:49:00.409Z,87.70
2023-01-29T17:51:27.440Z,88.50
2023-01-29T17:53:54.484Z,89.90
2023-01-29T17:56:30.254Z,91.10
2023-01-29T17:58:57.239Z,92.00
2023-01-29T18:01:24.389Z,93.20
2023-01-29T18:03:51.478Z,93.40
2023-01-29T18:06:28.503Z,94.30
2023-01-29T18:08:56.550Z,95.10
2023-01-29T18:11:24.034Z,96.10
2023-01-29T18:13:51.061Z,97.10
2023-01-29T18:16:18.559Z,98.00
2023-01-29T18:18:45.670Z,98.60
2023-01-29T18:21:12.703Z,99.20
2023-01-29T18:23:41.284Z,99.10
2023-01-29T18:26:11.793Z,99.80
2023-01-29T18:28:39.170Z,99.90
2023-01-29T18:31:06.473Z,99.90
2023-01-29T18:33:34.384Z,99.90
2023-01-29T18:36:01.747Z,99.90
2023-01-29T18:38:29.384Z,99.90
2023-01-29T18:41:04.310Z,99.90
2023-01-29T18:43:33.872Z,99.90
2023-01-29T18:46:01.177Z,99.90
2023-01-29T18:48:28.656Z,99.90
2023-01-29T18:50:55.867Z,99.90
2023-01-29T18:53:23.113Z,99.90
2023-01-29T18:55:58.838Z,99.90
2023-01-29T18:58:36.717Z,99.90
2023-01-29T19:01:10.839Z,99.90
2023-01-29T19:03:39.852Z,99.90
2023-01-29T19:06:10.406Z,99.90
2023-01-29T19:08:37.825Z,99.90
2023-01-29T19:11:08.196Z,99.90
2023-01-29T19:13:37.066Z,99.90
2023-01-29T19:16:09.248Z,99.90
2023-01-29T19:18:36.859Z,99.90
2023-01-29T19:21:16.837Z,99.90
2023-01-29T19:23:44.994Z,99.90
2023-01-29T19:26:13.767Z,99.90
2023-01-29T19:28:41.839Z,99.90
2023-01-29T19:31:12.194Z,99.90
2023-01-29T19:33:40.315Z,99.90
2023-01-29T19:36:10.541Z,99.90
2023-01-29T19:38:38.880Z,99.90
2023-01-29T19:41:06.523Z,99.90
2023-01-29T19:43:34.514Z,99.90
2023-01-29T19:46:03.269Z,99.90
2023-01-29T19:48:32.368Z,99.90
2023-01-29T19:51:02.325Z,99.90
2023-01-29T19:53:29.980Z,99.90
2023-01-29T19:56:09.921Z,99.90
2023-01-29T19:58:37.616Z,99.90
2023-01-29T20:01:07.567Z,99.90
2023-01-29T20:03:38.058Z,99.90
2023-01-29T20:06:06.624Z,99.90
2023-01-29T20:08:36.133Z,99.90
2023-01-29T20:11:03.785Z,99.90
2023-01-29T20:13:34.162Z,99.90
2023-01-29T20:16:05.749Z,99.90
2023-01-29T20:18:33.616Z,99.90
2023-01-29T20:21:08.271Z,99.90
2023-01-29T20:23:38.397Z,99.90
2023-01-29T20:26:16.062Z,99.90
2023-01-29T20:28:45.378Z,99.90
2023-01-29T20:31:12.628Z,99.90
2023-01-29T20:33:41.153Z,99.90
2023-01-29T20:36:11.189Z,99.90
2023-01-29T20:38:42.566Z,99.90
2023-01-29T20:41:17.945Z,99.90
2023-01-29T20:43:47.101Z,99.90
2023-01-29T20:46:14.914Z,99.90
2023-01-29T20:48:42.342Z,99.90
2023-01-29T20:51:17.756Z,99.90
2023-01-29T20:53:46.911Z,99.90
2023-01-29T20:56:16.977Z,99.90
2023-01-29T20:58:45.056Z,99.90
2023-01-29T21:01:17.287Z,99.90
2023-01-29T21:03:45.041Z,99.90
2023-01-29T21:06:13.362Z,99.90
2023-01-29T21:08:41.127Z,99.90
2023-01-29T21:11:09.322Z,99.90
2023-01-29T21:13:38.326Z,99.90
2023-01-29T21:16:06.061Z,99.90
2023-01-29T21:18:36.016Z,99.90
2023-01-29T21:21:04.118Z,99.90
2023-01-29T21:23:31.553Z,99.90
2023-01-29T21:26:06.189Z,99.90
2023-01-29T21:28:35.629Z,99.90
2023-01-29T21:31:14.687Z,99.90
2023-01-29T21:33:43.047Z,99.90
2023-01-29T21:36:11.180Z,99.90
2023-01-29T21:38:40.424Z,99.90
2023-01-29T21:41:09.887Z,99.90
2023-01-29T21:43:37.978Z,99.90
2023-01-29T21:46:15.598Z,99.90
2023-01-29T21:48:45.533Z,99.90
2023-01-29T21:51:12.627Z,99.90
2023-01-29T21:53:40.232Z,99.90
2023-01-29T21:56:07.680Z,99.90
2023-01-29T21:58:38.437Z,99.90
2023-01-29T22:01:11.505Z,99.90
2023-01-29T22:03:54.669Z,99.90
2023-01-29T22:06:22.172Z,99.90
2023-01-29T22:08:50.981Z,99.90
2023-01-29T22:11:22.385Z,99.90
2023-01-29T22:13:49.977Z,99.90
2023-01-29T22:16:20.837Z,99.90
2023-01-29T22:18:51.346Z,99.90
2023-01-29T22:21:19.683Z,99.90
2023-01-29T22:23:51.803Z,99.90
2023-01-29T22:26:19.520Z,99.90
2023-01-29T22:28:47.104Z,99.90
2023-01-29T22:31:14.424Z,99.90
2023-01-29T22:33:43.096Z,99.90
2023-01-29T22:36:13.253Z,99.90
2023-01-29T22:38:43.174Z,99.90
2023-01-29T22:41:11.253Z,99.90
2023-01-29T22:43:38.723Z,99.90
2023-01-29T22:46:09.366Z,99.90
2023-01-29T22:48:36.999Z,99.90
2023-01-29T22:51:13.175Z,99.90
2023-01-29T22:53:43.209Z,99.90
2023-01-29T22:56:13.886Z,99.90
2023-01-29T22:58:41.292Z,99.90
2023-01-29T23:01:09.310Z,99.90
2023-01-29T23:03:37.207Z,99.90
2023-01-29T23:06:04.581Z,99.90
2023-01-29T23:08:33.065Z,99.90
2023-01-29T23:11:14.481Z,99.90
2023-01-29T23:13:48.033Z,99.90
2023-01-29T23:16:17.023Z,99.90
2023-01-29T23:18:45.619Z,99.90
2023-01-29T23:21:12.977Z,99.90
2023-01-29T23:23:40.639Z,99.90
2023-01-29T23:26:26.398Z,99.90
2023-01-29T23:28:53.579Z,99.90
2023-01-29T23:31:20.835Z,99.90
2023-01-29T23:33:48.718Z,99.90
2023-01-29T23:36:16.095Z,99.90
2023-01-29T23:38:43.526Z,99.90
2023-01-29T23:41:10.628Z,99.90
2023-01-29T23:43:37.734Z,99.90
2023-01-29T23:46:07.776Z,99.90
2023-01-29T23:48:34.906Z,99.90
2023-01-29T23:51:02.018Z,99.90
2023-01-29T23:53:29.129Z,99.90
2023-01-29T23:56:03.784Z,99.90
2023-01-29T23:58:32.355Z,99.90
